createdAt,value
2023-02-19T00:00:33.437Z,97038.16
2023-02-19T00:03:06.762Z,97019.94
2023-02-19T00:05:38.835Z,97033.72
2023-02-19T00:08:09.489Z,97025.78
2023-02-19T00:10:39.990Z,97027.94
2023-02-19T00:13:10.890Z,97023.91
2023-02-19T00:15:41.408Z,97024.38
2023-02-19T00:18:14.633Z,97026.41
2023-02-19T00:20:45.196Z,97021.50
2023-02-19T00:23:15.996Z,97029.66
2023-02-19T00:25:46.452Z,97036.66
2023-02-19T00:28:17.060Z,97032.53
2023-02-19T00:30:47.560Z,97039.03
2023-02-19T00:33:20.957Z,97030.00
2023-02-19T00:35:51.569Z,97041.84
2023-02-19T00:38:22.250Z,97032.94
2023-02-19T00:40:52.722Z,97023.13
2023-02-19T00:43:24.205Z,97030.50
2023-02-19T00:45:54.754Z,97004.28
2023-02-19T00:48:29.019Z,97029.63
2023-02-19T00:50:59.479Z,97023.53
2023-02-19T00:53:30.126Z,97017.75
2023-02-19T00:56:00.648Z,97028.09
2023-02-19T00:58:31.458Z,97030.00
2023-02-19T01:01:02.652Z,97017.63
2023-02-19T01:03:36.015Z,97027.25
2023-02-19T01:06:07.987Z,97012.03
2023-02-19T01:08:38.838Z,97008.94
2023-02-19T01:11:10.928Z,97000.00
2023-02-19T01:13:41.863Z,97002.38
2023-02-19T01:16:15.889Z,97001.69
2023-02-19T01:18:50.857Z,97007.41
2023-02-19T01:21:22.888Z,97009.28
2023-02-19T01:23:54.577Z,97010.66
2023-02-19T01:26:26.826Z,97010.00
2023-02-19T01:28:57.554Z,97017.41
2023-02-19T01:31:29.227Z,97008.44
2023-02-19T01:34:04.747Z,97011.09
2023-02-19T01:36:38.025Z,96998.16
2023-02-19T01:39:11.538Z,97028.13
2023-02-19T01:41:43.910Z,97030.00
2023-02-19T01:44:44.059Z,97022.25
2023-02-19T01:47:14.850Z,97022.19
2023-02-19T01:49:52.525Z,97018.47
2023-02-19T01:52:28.835Z,97025.66
2023-02-19T01:55:01.083Z,97019.56
2023-02-19T01:57:38.115Z,97014.06
2023-02-19T02:00:13.586Z,97024.41
2023-02-19T02:02:46.532Z,97011.00
2023-02-19T02:05:28.117Z,97017.44
2023-02-19T02:08:11.150Z,97017.56
2023-02-19T02:10:42.247Z,97028.19
2023-02-19T02:13:13.280Z,97041.28
2023-02-19T02:16:16.398Z,97044.94
2023-02-19T02:19:01.623Z,97046.97
2023-02-19T02:21:56.544Z,97055.03
2023-02-19T02:24:53.193Z,97053.69
2023-02-19T02:27:38.093Z,97054.03
2023-02-19T02:30:22.564Z,97065.06
2023-02-19T02:32:59.319Z,97071.97
2023-02-19T02:35:33.863Z,97071.41
2023-02-19T02:38:08.207Z,97069.47
2023-02-19T02:40:39.709Z,97083.69
2023-02-19T02:43:10.417Z,97082.41
2023-02-19T02:45:44.328Z,97086.97
2023-02-19T02:48:32.882Z,97091.47
2023-02-19T02:51:09.191Z,97083.84
2023-02-19T02:54:03.200Z,97086.13
2023-02-19T02:56:35.150Z,97099.25
2023-02-19T02:59:09.776Z,97094.22
2023-02-19T03:01:58.606Z,97080.28
2023-02-19T03:04:36.410Z,97083.59
2023-02-19T03:07:11.029Z,97082.22
2023-02-19T03:09:45.727Z,97092.66
2023-02-19T03:12:37.802Z,97081.84
2023-02-19T03:15:26.541Z,97090.53
2023-02-19T03:18:16.788Z,97082.31
2023-02-19T03:20:51.897Z,97103.50
2023-02-19T03:23:47.321Z,97099.38
2023-02-19T03:26:18.033Z,97093.88
2023-02-19T03:29:08.297Z,97096.31
2023-02-19T03:31:43.046Z,97093.75
2023-02-19T03:34:22.019Z,97098.41
2023-02-19T03:37:00.044Z,97085.41
2023-02-19T03:39:31.220Z,97079.22
2023-02-19T03:42:08.969Z,97081.25
2023-02-19T03:44:45.202Z,97087.31
2023-02-19T03:47:21.028Z,97092.97
2023-02-19T03:49:59.902Z,97086.91
2023-02-19T03:52:41.238Z,97091.13
2023-02-19T03:55:17.122Z,97091.81
2023-02-19T03:57:54.886Z,97094.78
2023-02-19T04:00:31.080Z,97085.13
2023-02-19T04:03:07.028Z,97094.09
2023-02-19T04:05:44.727Z,97100.53
2023-02-19T04:08:19.043Z,97082.25
2023-02-19T04:10:57.777Z,97103.50
2023-02-19T04:13:35.047Z,97091.91
2023-02-19T04:16:10.255Z,97089.81
2023-02-19T04:18:44.068Z,97095.38
2023-02-19T04:21:18.805Z,97091.44
2023-02-19T04:23:50.350Z,97082.59
2023-02-19T04:26:23.338Z,97089.16
2023-02-19T04:28:53.995Z,97089.81
2023-02-19T04:31:25.318Z,97096.94
2023-02-19T04:33:56.392Z,97084.00
2023-02-19T04:36:29.556Z,97081.25
2023-02-19T04:39:00.139Z,97085.59
2023-02-19T04:41:30.627Z,97087.47
2023-02-19T04:44:01.311Z,97082.59
2023-02-19T04:46:31.900Z,97073.41
2023-02-19T04:49:02.501Z,97085.06
2023-02-19T04:51:35.753Z,97078.88
2023-02-19T04:54:06.558Z,97092.72
2023-02-19T04:56:37.093Z,97096.94
2023-02-19T04:59:07.797Z,97076.84
2023-02-19T05:01:39.444Z,97095.97
2023-02-19T05:04:10.019Z,97090.50
2023-02-19T05:06:43.162Z,97104.13
2023-02-19T05:09:13.818Z,97093.78
2023-02-19T05:11:44.392Z,97107.25
2023-02-19T05:14:15.037Z,97103.06
2023-02-19T05:16:45.612Z,97107.53
2023-02-19T05:19:16.298Z,97104.00
2023-02-19T05:21:49.744Z,97104.28
2023-02-19T05:24:20.499Z,97115.97
2023-02-19T05:26:51.128Z,97122.34
2023-02-19T05:29:21.824Z,97121.75
2023-02-19T05:31:52.444Z,97117.63
2023-02-19T05:34:23.177Z,97134.72
2023-02-19T05:36:56.404Z,97142.41
2023-02-19T05:39:26.927Z,97146.28
2023-02-19T05:41:57.485Z,97145.16
2023-02-19T05:44:28.381Z,97170.91
2023-02-19T05:46:58.942Z,97177.97
2023-02-19T05:49:29.794Z,97189.22
2023-02-19T05:52:02.900Z,97181.81
2023-02-19T05:54:33.799Z,97178.19
2023-02-19T05:57:04.535Z,97187.66
2023-02-19T05:59:35.231Z,97178.53
2023-02-19T06:02:05.750Z,97183.13
2023-02-19T06:04:36.393Z,97181.59
2023-02-19T06:07:09.465Z,97167.44
2023-02-19T06:09:40.041Z,97182.44
2023-02-19T06:12:11.126Z,97187.56
2023-02-19T06:14:41.731Z,97194.13
2023-02-19T06:17:12.189Z,97198.59
2023-02-19T06:19:42.868Z,97191.91
2023-02-19T06:22:17.805Z,97197.47
2023-02-19T06:24:48.413Z,97195.75
2023-02-19T06:27:19.082Z,97195.50
2023-02-19T06:29:49.667Z,97199.09
2023-02-19T06:32:20.285Z,97189.91
2023-02-19T06:34:50.897Z,97201.63
2023-02-19T06:37:24.142Z,97203.88
2023-02-19T06:39:54.799Z,97204.69
2023-02-19T06:42:25.410Z,97201.38
2023-02-19T06:44:56.173Z,97202.91
2023-02-19T06:47:26.733Z,97200.09
2023-02-19T06:49:57.319Z,97206.53
2023-02-19T06:52:30.513Z,97205.56
2023-02-19T06:55:01.050Z,97185.50
2023-02-19T06:57:33.856Z,97206.66
2023-02-19T07:00:05.379Z,97205.81
2023-02-19T07:02:35.981Z,97204.28
2023-02-19T07:05:06.498Z,97191.97
2023-02-19T07:07:39.700Z,97195.28
2023-02-19T07:10:10.777Z,97192.69
2023-02-19T07:12:41.413Z,97188.53
2023-02-19T07:15:13.167Z,97188.16
2023-02-19T07:17:43.644Z,97184.59
2023-02-19T07:20:15.154Z,97180.53
2023-02-19T07:22:48.409Z,97181.03
2023-02-19T07:25:19.333Z,97182.88
2023-02-19T07:27:49.865Z,97171.66
2023-02-19T07:30:20.841Z,97170.34
2023-02-19T07:32:51.431Z,97180.03
2023-02-19T07:35:22.110Z,97174.72
2023-02-19T07:37:55.281Z,97165.84
2023-02-19T07:40:25.923Z,97172.94
2023-02-19T07:42:56.527Z,97176.44
2023-02-19T07:45:27.110Z,97184.22
2023-02-19T07:47:57.633Z,97172.97
2023-02-19T07:50:28.203Z,97178.38
2023-02-19T07:53:01.400Z,97173.84
2023-02-19T07:55:31.979Z,97166.84
2023-02-19T07:58:05.839Z,97167.81
2023-02-19T08:00:36.879Z,97168.97
2023-02-19T08:03:04.959Z,97172.28
2023-02-19T08:05:37.243Z,97170.91
2023-02-19T08:08:12.477Z,97164.19
2023-02-19T08:10:55.272Z,97181.81
2023-02-19T08:13:26.008Z,97167.53
2023-02-19T08:16:10.960Z,97175.41
2023-02-19T08:18:47.681Z,97172.50
2023-02-19T08:21:20.713Z,97178.44
2023-02-19T08:23:53.850Z,97172.22
2023-02-19T08:26:24.523Z,97172.13
2023-02-19T08:28:54.946Z,97172.28
2023-02-19T08:31:25.555Z,97167.25
2023-02-19T08:33:56.276Z,97174.53
2023-02-19T08:36:26.777Z,97178.19
2023-02-19T08:38:59.897Z,97181.09
2023-02-19T08:41:30.373Z,97180.47
2023-02-19T08:44:00.938Z,97186.00
2023-02-19T08:46:33.493Z,97186.09
2023-02-19T08:49:05.605Z,97169.94
2023-02-19T08:51:36.206Z,97185.31
2023-02-19T08:54:09.465Z,97170.19
2023-02-19T08:56:40.037Z,97172.50
2023-02-19T08:59:10.629Z,97169.78
2023-02-19T09:01:41.263Z,97159.44
2023-02-19T09:04:15.301Z,97159.19
2023-02-19T09:06:45.952Z,97152.59
2023-02-19T09:09:19.133Z,97147.34
2023-02-19T09:11:49.634Z,97152.53
2023-02-19T09:14:20.329Z,97138.00
2023-02-19T09:16:50.908Z,97133.06
2023-02-19T09:19:21.581Z,97116.03
2023-02-19T09:21:52.189Z,97125.91
2023-02-19T09:24:25.900Z,97118.25
2023-02-19T09:26:57.933Z,97115.94
2023-02-19T09:29:30.277Z,97108.31
2023-02-19T09:32:01.553Z,97098.09
2023-02-19T09:34:32.629Z,97104.06
2023-02-19T09:37:03.283Z,97115.66
2023-02-19T09:39:36.707Z,97117.09
2023-02-19T09:42:16.000Z,97106.88
2023-02-19T09:44:48.675Z,97107.03
2023-02-19T09:47:22.394Z,97106.97
2023-02-19T09:49:55.580Z,97104.66
2023-02-19T09:52:34.422Z,97103.53
2023-02-19T09:55:17.466Z,97098.56
2023-02-19T09:57:48.987Z,97091.06
2023-02-19T10:00:25.645Z,97081.28
2023-02-19T10:02:58.430Z,97089.38
2023-02-19T10:05:29.979Z,97100.06
2023-02-19T10:08:01.805Z,97098.34
2023-02-19T10:10:38.583Z,97093.13
2023-02-19T10:13:22.587Z,97086.31
2023-02-19T10:15:55.210Z,97091.63
2023-02-19T10:18:28.526Z,97098.13
2023-02-19T10:21:00.550Z,97085.75
2023-02-19T10:23:31.469Z,97087.69
2023-02-19T10:26:04.755Z,97082.53
2023-02-19T10:28:37.575Z,97070.97
2023-02-19T10:31:20.836Z,97067.63
2023-02-19T10:33:53.820Z,97069.06
2023-02-19T10:36:32.277Z,97066.53
2023-02-19T10:39:04.769Z,97066.31
2023-02-19T10:41:44.420Z,97069.72
2023-02-19T10:44:21.139Z,97049.44
2023-02-19T10:46:55.464Z,97056.38
2023-02-19T10:49:30.715Z,97059.16
2023-02-19T10:52:05.710Z,97047.69
2023-02-19T10:54:36.972Z,97050.00
2023-02-19T10:57:30.551Z,97041.22
2023-02-19T11:00:03.836Z,97041.44
2023-02-19T11:02:35.766Z,97040.88
2023-02-19T11:05:12.255Z,97039.81
2023-02-19T11:07:49.273Z,97057.66
2023-02-19T11:10:31.254Z,97035.69
2023-02-19T11:13:06.749Z,97041.34
2023-02-19T11:15:39.228Z,97038.41
2023-02-19T11:18:23.809Z,97045.66
2023-02-19T11:20:57.000Z,97043.19
2023-02-19T11:23:31.264Z,97042.41
2023-02-19T11:26:04.646Z,97044.63
2023-02-19T11:28:40.420Z,97028.88
2023-02-19T11:31:27.767Z,97032.63
2023-02-19T11:34:01.200Z,97036.66
2023-02-19T11:36:34.521Z,97031.25
2023-02-19T11:39:22.678Z,97031.00
2023-02-19T11:42:15.894Z,97025.34
2023-02-19T11:45:03.389Z,97018.88
2023-02-19T11:48:01.579Z,97016.19
2023-02-19T11:50:42.932Z,97018.66
2023-02-19T11:53:24.534Z,97020.66
2023-02-19T11:56:13.628Z,97017.72
2023-02-19T11:59:02.938Z,97019.69
2023-02-19T12:01:50.999Z,97008.53
2023-02-19T12:04:57.802Z,96999.81
2023-02-19T12:07:53.101Z,97004.03
2023-02-19T12:10:31.572Z,96997.06
2023-02-19T12:13:10.690Z,96994.81
2023-02-19T12:16:05.746Z,96999.50
2023-02-19T12:19:02.183Z,96990.66
2023-02-19T12:21:46.331Z,96984.06
2023-02-19T12:24:37.278Z,96982.00
2023-02-19T12:27:23.551Z,96973.78
2023-02-19T12:30:12.605Z,96966.09
2023-02-19T12:32:56.671Z,96959.69
2023-02-19T12:35:52.029Z,96961.69
2023-02-19T12:38:33.763Z,96965.53
2023-02-19T12:41:27.993Z,96956.66
2023-02-19T12:44:02.595Z,96947.88
2023-02-19T12:46:39.833Z,96961.84
2023-02-19T12:49:16.018Z,96957.22
2023-02-19T12:51:55.414Z,96966.31
2023-02-19T12:54:31.152Z,96963.25
2023-02-19T12:57:05.927Z,96958.94
2023-02-19T12:59:42.488Z,96961.91
2023-02-19T13:02:20.989Z,96949.72
2023-02-19T13:04:57.911Z,96938.63
2023-02-19T13:07:37.169Z,96939.91
2023-02-19T13:10:27.623Z,96941.44
2023-02-19T13:13:01.659Z,96931.13
2023-02-19T13:15:37.903Z,96925.03
2023-02-19T13:18:16.773Z,96914.81
2023-02-19T13:20:51.877Z,96925.13
2023-02-19T13:23:42.072Z,96909.31
2023-02-19T13:26:32.509Z,96913.41
2023-02-19T13:29:17.345Z,96904.34
2023-02-19T13:32:04.758Z,96905.66
2023-02-19T13:34:54.998Z,96895.25
2023-02-19T13:37:26.955Z,96894.38
2023-02-19T13:40:03.547Z,96897.34
2023-02-19T13:42:37.046Z,96887.91
2023-02-19T13:45:10.156Z,96889.56
2023-02-19T13:48:03.329Z,96878.47
2023-02-19T13:50:35.821Z,96884.22
2023-02-19T13:53:41.387Z,96869.00
2023-02-19T13:56:42.696Z,96869.66
2023-02-19T13:59:36.470Z,96867.63
2023-02-19T14:02:18.797Z,96860.41
2023-02-19T14:04:53.478Z,96862.22
2023-02-19T14:07:55.488Z,96856.13
2023-02-19T14:10:57.949Z,96849.41
2023-02-19T14:13:58.369Z,96857.97
2023-02-19T14:16:54.650Z,96852.84
2023-02-19T14:20:01.159Z,96847.38
2023-02-19T14:22:55.685Z,96844.31
2023-02-19T14:25:52.946Z,96837.41
2023-02-19T14:28:30.787Z,96837.41
2023-02-19T14:31:03.937Z,96837.03
2023-02-19T14:33:40.365Z,96838.75
2023-02-19T14:36:22.211Z,96830.72
2023-02-19T14:38:56.409Z,96824.22
2023-02-19T14:41:28.960Z,96833.91
2023-02-19T14:44:02.313Z,96841.31
2023-02-19T14:46:35.898Z,96841.03
2023-02-19T14:49:18.412Z,96832.38
2023-02-19T14:51:54.298Z,96822.66
2023-02-19T14:54:37.876Z,96832.72
2023-02-19T14:57:18.560Z,96837.56
2023-02-19T14:59:58.607Z,96823.94
2023-02-19T15:02:30.786Z,96836.53
2023-02-19T15:05:04.407Z,96826.16
2023-02-19T15:07:36.909Z,96826.31
2023-02-19T15:10:08.838Z,96834.38
2023-02-19T15:12:52.912Z,96838.97
2023-02-19T15:15:28.696Z,96826.84
2023-02-19T15:18:02.534Z,96828.66
2023-02-19T15:20:38.185Z,96834.03
2023-02-19T15:23:10.702Z,96822.16
2023-02-19T15:25:42.699Z,96811.22
2023-02-19T15:28:23.720Z,96823.81
2023-02-19T15:30:55.133Z,96830.63
2023-02-19T15:33:27.373Z,96825.84
2023-02-19T15:36:03.720Z,96824.56
2023-02-19T15:38:34.818Z,96832.84
2023-02-19T15:41:05.803Z,96828.09
2023-02-19T15:43:44.521Z,96830.78
2023-02-19T15:46:21.020Z,96829.91
2023-02-19T15:48:56.293Z,96833.09
2023-02-19T15:51:36.579Z,96817.56
2023-02-19T15:54:19.793Z,96817.81
2023-02-19T15:56:53.282Z,96814.84
2023-02-19T15:59:31.848Z,96820.53
2023-02-19T16:02:04.501Z,96815.66
2023-02-19T16:04:38.558Z,96825.38
2023-02-19T16:07:32.143Z,96826.16
2023-02-19T16:10:23.747Z,96818.50
2023-02-19T16:13:01.752Z,96819.56
2023-02-19T16:15:34.988Z,96817.81
2023-02-19T16:18:05.679Z,96816.22
2023-02-19T16:20:38.497Z,96825.53
2023-02-19T16:23:16.519Z,96816.91
2023-02-19T16:25:47.911Z,96820.16
2023-02-19T16:28:25.835Z,96817.41
2023-02-19T16:31:00.070Z,96817.50
2023-02-19T16:33:39.804Z,96814.78
2023-02-19T16:36:29.015Z,96814.59
2023-02-19T16:39:24.326Z,96810.75
2023-02-19T16:42:15.466Z,96802.19
2023-02-19T16:44:52.465Z,96809.03
2023-02-19T16:47:37.378Z,96789.31
2023-02-19T16:50:16.011Z,96800.69
2023-02-19T16:52:57.323Z,96805.16
2023-02-19T16:55:32.522Z,96785.28
2023-02-19T16:58:03.310Z,96807.84
2023-02-19T17:00:35.266Z,96822.16
2023-02-19T17:03:10.002Z,96823.91
2023-02-19T17:05:42.039Z,96833.56
2023-02-19T17:08:35.246Z,96842.09
2023-02-19T17:11:10.230Z,96847.56
2023-02-19T17:13:41.153Z,96855.72
2023-02-19T17:16:15.056Z,96861.38
2023-02-19T17:18:45.614Z,96881.41
2023-02-19T17:21:18.521Z,96888.28
2023-02-19T17:23:49.309Z,96878.63
2023-02-19T17:26:25.838Z,96902.19
2023-02-19T17:28:56.812Z,96901.03
2023-02-19T17:31:27.828Z,96895.94
2023-02-19T17:33:59.110Z,96900.72
2023-02-19T17:36:31.807Z,96893.75
2023-02-19T17:39:03.449Z,96896.28
2023-02-19T17:41:36.720Z,96892.41
2023-02-19T17:44:07.312Z,96882.81
2023-02-19T17:46:37.981Z,96882.03
2023-02-19T17:49:09.002Z,96887.66
2023-02-19T17:51:39.673Z,96893.63
2023-02-19T17:54:10.303Z,96900.38
2023-02-19T17:56:46.218Z,96908.22
2023-02-19T17:59:18.356Z,96926.63
2023-02-19T18:01:49.125Z,96944.56
2023-02-19T18:04:19.750Z,96949.88
2023-02-19T18:06:50.922Z,96951.25
2023-02-19T18:09:22.612Z,96952.53
2023-02-19T18:11:55.834Z,96957.59
2023-02-19T18:14:26.626Z,96951.69
2023-02-19T18:16:57.262Z,96943.66
2023-02-19T18:19:27.785Z,96954.31
2023-02-19T18:21:58.479Z,96957.41
2023-02-19T18:24:29.106Z,96957.22
2023-02-19T18:27:02.303Z,96959.38
2023-02-19T18:29:35.079Z,96962.91
2023-02-19T18:32:05.850Z,96973.44
2023-02-19T18:34:36.465Z,96977.09
2023-02-19T18:37:07.124Z,96978.03
2023-02-19T18:39:37.711Z,96984.84
2023-02-19T18:42:11.049Z,96991.34
2023-02-19T18:44:42.322Z,96985.13
2023-02-19T18:47:13.418Z,96987.31
2023-02-19T18:49:47.736Z,96982.94
2023-02-19T18:52:20.570Z,96993.75
2023-02-19T18:54:52.070Z,97000.44
2023-02-19T18:57:27.104Z,97002.44
2023-02-19T18:59:57.718Z,97005.09
2023-02-19T19:02:36.355Z,97013.09
2023-02-19T19:05:07.200Z,97012.84
2023-02-19T19:07:41.376Z,97005.56
2023-02-19T19:10:19.445Z,97012.84
2023-02-19T19:13:00.757Z,97009.31
2023-02-19T19:15:33.044Z,97012.13
2023-02-19T19:18:03.700Z,97007.78
2023-02-19T19:20:34.295Z,97017.78
2023-02-19T19:23:05.292Z,97004.56
2023-02-19T19:25:35.838Z,97022.41
2023-02-19T19:28:09.110Z,97020.38
2023-02-19T19:30:39.812Z,97020.22
2023-02-19T19:33:12.155Z,97028.34
2023-02-19T19:35:44.813Z,97027.63
2023-02-19T19:38:16.423Z,97022.44
2023-02-19T19:40:47.126Z,97014.34
2023-02-19T19:43:20.514Z,97017.91
2023-02-19T19:45:51.264Z,97017.59
2023-02-19T19:48:22.183Z,97011.63
2023-02-19T19:50:52.913Z,97023.22
2023-02-19T19:53:23.980Z,97021.22
2023-02-19T19:55:55.472Z,97022.59
2023-02-19T19:58:28.969Z,97020.94
2023-02-19T20:01:01.913Z,97026.91
2023-02-19T20:03:33.755Z,97010.63
2023-02-19T20:06:04.676Z,97035.84
2023-02-19T20:08:35.357Z,97032.53
2023-02-19T20:11:06.470Z,97046.50
2023-02-19T20:13:39.756Z,97054.47
2023-02-19T20:16:12.650Z,97043.88
2023-02-19T20:18:43.553Z,97051.19
2023-02-19T20:21:14.746Z,97063.47
2023-02-19T20:23:45.513Z,97061.97
2023-02-19T20:26:16.091Z,97054.31
2023-02-19T20:28:49.304Z,97059.81
2023-02-19T20:31:20.868Z,97054.34
2023-02-19T20:33:51.839Z,97056.53
2023-02-19T20:36:22.904Z,97062.53
2023-02-19T20:38:53.876Z,97062.19
2023-02-19T20:41:24.924Z,97060.84
2023-02-19T20:43:58.169Z,97071.31
2023-02-19T20:46:30.076Z,97067.50
2023-02-19T20:49:00.814Z,97063.84
2023-02-19T20:51:31.475Z,97058.53
2023-02-19T20:54:02.018Z,97070.16
2023-02-19T20:56:32.805Z,97071.50
2023-02-19T20:59:06.020Z,97063.34
2023-02-19T21:01:36.663Z,97065.25
2023-02-19T21:04:07.365Z,97082.47
2023-02-19T21:06:38.477Z,97077.44
2023-02-19T21:09:09.457Z,97083.63
2023-02-19T21:11:40.164Z,97091.84
2023-02-19T21:14:13.602Z,97088.59
2023-02-19T21:16:44.537Z,97093.72
2023-02-19T21:19:15.224Z,97088.16
2023-02-19T21:21:45.995Z,97097.31
2023-02-19T21:24:18.782Z,97095.56
2023-02-19T21:26:49.473Z,97094.28
2023-02-19T21:29:25.590Z,97101.44
2023-02-19T21:31:58.998Z,97083.63
2023-02-19T21:34:31.415Z,97082.78
2023-02-19T21:37:02.159Z,97087.31
2023-02-19T21:39:33.812Z,97089.38
2023-02-19T21:42:04.400Z,97084.75
2023-02-19T21:44:37.563Z,97093.53
2023-02-19T21:47:08.370Z,97097.88
2023-02-19T21:49:38.955Z,97095.31
2023-02-19T21:52:09.674Z,97094.81
2023-02-19T21:54:40.249Z,97095.25
2023-02-19T21:57:11.345Z,97081.78
2023-02-19T21:59:44.537Z,97088.28
2023-02-19T22:02:15.316Z,97091.78
2023-02-19T22:04:45.980Z,97079.31
2023-02-19T22:07:16.557Z,97097.75
2023-02-19T22:09:47.384Z,97098.19
2023-02-19T22:12:18.155Z,97095.31
2023-02-19T22:14:51.990Z,97098.69
2023-02-19T22:17:22.949Z,97110.81
2023-02-19T22:19:53.459Z,97104.34
2023-02-19T22:22:24.151Z,97105.97
2023-02-19T22:24:54.697Z,97094.97
2023-02-19T22:27:25.529Z,97094.38
2023-02-19T22:29:58.642Z,97100.53
2023-02-19T22:32:29.545Z,97098.13
2023-02-19T22:35:01.068Z,97103.53
2023-02-19T22:37:34.246Z,97104.81
2023-02-19T22:40:05.246Z,97108.44
2023-02-19T22:42:36.260Z,97113.50
2023-02-19T22:45:10.551Z,97111.16
2023-02-19T22:47:42.486Z,97107.78
2023-02-19T22:50:20.160Z,97112.94
2023-02-19T22:52:54.637Z,97115.72
2023-02-19T22:55:25.496Z,97108.38
2023-02-19T22:57:56.668Z,97116.19
2023-02-19T23:00:30.227Z,97105.06
2023-02-19T23:03:01.128Z,97115.38
2023-02-19T23:05:32.696Z,97121.69
2023-02-19T23:08:03.375Z,97121.88
2023-02-19T23:10:33.991Z,97126.38
2023-02-19T23:13:04.544Z,97134.03
2023-02-19T23:15:37.841Z,97113.34
2023-02-19T23:18:08.796Z,97114.00
2023-02-19T23:20:39.658Z,97127.97
2023-02-19T23:23:10.297Z,97128.63
2023-02-19T23:25:40.823Z,97113.13
2023-02-19T23:28:11.407Z,97104.63
2023-02-19T23:30:44.660Z,97119.19
2023-02-19T23:33:15.212Z,97122.75
2023-02-19T23:35:45.837Z,97114.41
2023-02-19T23:38:16.350Z,97104.66
2023-02-19T23:40:46.876Z,97115.16
2023-02-19T23:43:17.468Z,97103.19
2023-02-19T23:45:50.761Z,97094.66
2023-02-19T23:48:21.468Z,97106.78
2023-02-19T23:50:51.966Z,97097.47
2023-02-19T23:53:22.662Z,97108.09
2023-02-19T23:55:53.627Z,97113.72
2023-02-19T23:58:24.212Z,97106.38
